Aviation Digital Data Service (ADDS)

Output produced by METARs form (0436 UTC 14 December 2017)
found at http://aviationweather.gov/adds/metars/
 
KCLE 140249Z 1403/1506 09011KT 1SM -SN OVC015 
     FM140700 36011KT 3SM -SHSN OVC010 
     FM141200 35012KT P6SM OVC015 
     FM142100 29010KT P6SM BKN025